Hauptseite
METAR-TAF:

METAR-TAF

Flughäfen :

Flugplatz Hamburg-Finkenwerder

Finkenwerder, Deutschland

Breite: 53-32N, Länge: 009-50E, Höhe: 5 m

Beobachtung

Neuester Wetterbericht von vor 39 Minuten, um 01:20 UTC
Wind 4 kt aus unterschiedlichen Richtungen
Temperatur -1°C
Luftfeuchtigkeit 86%
Luftdruck 1037 hPa
Sichtweite 10 km oder mehr

METAR: EDHI 050120Z AUTO VRB04KT 9999 // FEW092/// M01/M03 Q1037

Zeit: 02:59 (01:59 UTC)

Prognose

Neuester Wetterbericht von vor 14 Stunden und 59 Minuten, um 11:00 UTC
Gültige Prognose vom 04 um 12 UTC bis 04 um 21 UTC
Wind 4 kt aus Ost
Sichtweite 10 km oder mehr
keine Wolken unter 1500 m und keine Kumulonimbus oder Gewitterwolken
Übergehend zu
vom 04 um 19 UTC bis 04 um 21 UTC
Wind 6 kt aus Süd/Südost

TAF: EDHI 041100Z 0412/0421 08004KT CAVOK BECMG 0419/0421 15006KT

Wetterbeobachtungen und Prognosen von mehr als 4000 Flughäfen (METAR und TAF Bericht).

Die verfügbaren Stationen werden durch gelbe und rote Markierungen auf der Karte dargestellt.

Führen Sie die Maus auf sie, um den Namen der Station zu sehen.

Darauf klicken, um die Beobachtung von Wetterbeobachtungen und Prognosen zu sehen.

Um die Karte zu ändern : klicken Sie auf den grünen Tasten mit einem schwarzen Kreuz Zum Vergrößern, auf den grünen Button mit einem Gedankenstrich zu verkleinern, oder auf die grünen Pfeile für benachbarte Karten.


METAR-TAF: